createdAt,value
2022-08-17T00:01:51.869Z,59.92
2022-08-17T00:04:22.362Z,60.42
2022-08-17T00:06:54.186Z,60.23
2022-08-17T00:09:32.233Z,60.18
2022-08-17T00:12:42.216Z,59.64
2022-08-17T00:15:10.617Z,59.61
2022-08-17T00:17:44.505Z,59.06
2022-08-17T00:20:17.553Z,59.49
2022-08-17T00:23:04.805Z,59.30
2022-08-17T00:25:35.174Z,59.58
2022-08-17T00:28:07.261Z,59.62
2022-08-17T00:30:51.086Z,60.14
2022-08-17T00:33:26.346Z,59.05
2022-08-17T00:35:58.205Z,59.66
2022-08-17T00:38:28.271Z,59.71
2022-08-17T00:41:03.124Z,59.66
2022-08-17T00:43:42.824Z,59.72
2022-08-17T00:46:20.868Z,59.34
2022-08-17T00:48:52.096Z,59.74
2022-08-17T00:51:38.128Z,59.25
2022-08-17T00:54:21.409Z,59.82
2022-08-17T00:56:53.720Z,59.68
2022-08-17T00:59:28.799Z,59.80
2022-08-17T01:01:56.861Z,59.72
2022-08-17T01:04:30.739Z,59.99
2022-08-17T01:07:06.786Z,60.00
2022-08-17T01:09:37.768Z,60.64
2022-08-17T01:12:11.186Z,60.07
2022-08-17T01:14:46.504Z,59.88
2022-08-17T01:17:17.985Z,60.01
2022-08-17T01:19:50.031Z,60.02
2022-08-17T01:22:25.515Z,59.94
2022-08-17T01:25:09.357Z,60.11
2022-08-17T01:27:44.640Z,59.67
2022-08-17T01:30:58.839Z,59.88
2022-08-17T01:33:11.823Z,59.58
2022-08-17T01:35:42.528Z,60.19
2022-08-17T01:41:09.249Z,60.13
2022-08-17T01:43:55.285Z,60.30
2022-08-17T01:46:34.022Z,59.89
2022-08-17T01:49:22.981Z,59.70
2022-08-17T01:51:58.746Z,60.03
2022-08-17T01:54:35.419Z,59.94
2022-08-17T01:57:11.201Z,59.76
2022-08-17T01:59:42.659Z,59.59
2022-08-17T02:02:11.492Z,59.03
2022-08-17T02:05:03.430Z,59.31
2022-08-17T02:07:48.000Z,59.25
2022-08-17T02:10:34.261Z,59.32
2022-08-17T02:13:07.311Z,59.42
2022-08-17T02:16:04.861Z,59.46
2022-08-17T02:18:43.762Z,59.24
2022-08-17T02:21:13.790Z,59.66
2022-08-17T02:23:51.162Z,59.37
2022-08-17T02:26:26.775Z,59.27
2022-08-17T02:28:56.270Z,58.47
2022-08-17T02:31:26.947Z,59.71
2022-08-17T02:34:28.640Z,59.49
2022-08-17T02:37:00.070Z,58.83
2022-08-17T02:39:35.967Z,59.61
2022-08-17T02:42:07.926Z,58.60
2022-08-17T02:44:40.244Z,58.05
2022-08-17T02:47:21.143Z,58.07
2022-08-17T02:49:54.338Z,58.21
2022-08-17T02:52:43.825Z,58.14
2022-08-17T02:55:18.632Z,58.73
2022-08-17T02:57:51.380Z,58.66
2022-08-17T03:00:29.311Z,59.95
2022-08-17T03:03:11.464Z,58.69
2022-08-17T03:05:42.599Z,58.79
2022-08-17T03:08:13.149Z,58.94
2022-08-17T03:10:41.727Z,59.13
2022-08-17T03:13:13.112Z,59.18
2022-08-17T03:15:47.281Z,60.01
2022-08-17T03:18:26.375Z,59.69
2022-08-17T03:21:05.868Z,60.31
2022-08-17T03:23:34.419Z,60.00
2022-08-17T03:26:04.948Z,59.66
2022-08-17T03:28:42.432Z,60.50
2022-08-17T03:31:19.708Z,60.40
2022-08-17T03:33:49.677Z,60.30
2022-08-17T03:36:21.577Z,60.43
2022-08-17T03:38:59.024Z,60.67
2022-08-17T03:41:31.260Z,60.36
2022-08-17T03:44:05.560Z,60.74
2022-08-17T03:46:57.946Z,60.59
2022-08-17T03:49:50.711Z,60.80
2022-08-17T03:52:38.745Z,60.36
2022-08-17T03:55:36.161Z,60.49
2022-08-17T03:58:05.841Z,60.64
2022-08-17T04:00:39.661Z,61.07
2022-08-17T04:03:07.637Z,60.76
2022-08-17T04:05:40.822Z,61.40
2022-08-17T04:08:38.138Z,60.59
2022-08-17T04:11:13.343Z,60.46
2022-08-17T04:13:43.686Z,61.16
2022-08-17T04:16:20.622Z,61.04
2022-08-17T04:18:53.558Z,60.75
2022-08-17T04:21:29.354Z,61.05
2022-08-17T04:23:58.259Z,61.41
2022-08-17T04:26:53.001Z,60.95
2022-08-17T04:29:28.538Z,61.50
2022-08-17T04:32:21.746Z,61.02
2022-08-17T04:35:16.963Z,61.10
2022-08-17T04:37:53.766Z,61.21
2022-08-17T04:40:42.639Z,60.92
2022-08-17T04:43:18.745Z,60.88
2022-08-17T04:45:56.296Z,61.02
2022-08-17T04:48:37.266Z,61.07
2022-08-17T04:51:14.516Z,60.96
2022-08-17T04:53:56.406Z,60.39
2022-08-17T04:56:32.670Z,60.66
2022-08-17T04:59:23.844Z,60.42
2022-08-17T05:01:57.118Z,60.49
2022-08-17T05:04:34.907Z,59.75
2022-08-17T05:07:04.413Z,60.14
2022-08-17T05:09:32.683Z,60.06
2022-08-17T05:12:06.152Z,59.67
2022-08-17T05:14:39.689Z,59.52
2022-08-17T05:17:11.116Z,60.01
2022-08-17T05:19:40.368Z,58.97
2022-08-17T05:22:11.742Z,58.95
2022-08-17T05:24:53.848Z,59.03
2022-08-17T05:27:32.920Z,57.97
2022-08-17T05:30:07.799Z,57.58
2022-08-17T05:35:39.133Z,56.71
2022-08-17T05:38:30.849Z,57.51
2022-08-17T05:41:09.729Z,56.67
2022-08-17T05:48:05.577Z,55.46
2022-08-17T05:50:49.330Z,56.05
2022-08-17T05:53:32.953Z,55.12
2022-08-17T05:57:03.384Z,54.64
2022-08-17T06:00:08.536Z,54.24
2022-08-17T06:03:14.610Z,54.60
2022-08-17T06:05:45.097Z,55.08
2022-08-17T06:08:40.201Z,53.79
2022-08-17T06:11:45.166Z,54.94
2022-08-17T06:14:28.324Z,53.41
2022-08-17T06:17:10.246Z,54.05
2022-08-17T06:19:52.294Z,53.41
2022-08-17T06:22:27.540Z,53.57
2022-08-17T06:25:11.597Z,52.44
2022-08-17T06:28:02.367Z,53.15
2022-08-17T06:30:59.271Z,52.39
2022-08-17T06:33:32.336Z,52.75
2022-08-17T06:36:09.517Z,52.82
2022-08-17T06:39:16.543Z,52.79
2022-08-17T06:43:00.819Z,52.94
2022-08-17T06:45:17.246Z,53.35
2022-08-17T06:48:17.315Z,52.30
2022-08-17T06:54:50.993Z,51.38
2022-08-17T06:57:50.895Z,51.58
2022-08-17T07:00:24.253Z,51.45
2022-08-17T07:03:02.620Z,51.85
2022-08-17T07:05:57.433Z,52.11
2022-08-17T07:09:19.745Z,50.92
2022-08-17T07:11:55.251Z,51.21
2022-08-17T07:14:37.943Z,51.09
2022-08-17T07:17:13.295Z,50.31
2022-08-17T07:23:05.736Z,52.02
2022-08-17T07:25:33.887Z,51.55
2022-08-17T07:28:06.999Z,50.24
2022-08-17T07:30:51.575Z,49.08
2022-08-17T07:33:27.614Z,48.99
2022-08-17T07:35:58.275Z,51.28
2022-08-17T07:38:37.875Z,49.38
2022-08-17T07:41:07.838Z,49.21
2022-08-17T07:43:49.932Z,47.64
2022-08-17T07:46:51.116Z,48.36
2022-08-17T07:49:31.924Z,47.84
2022-08-17T07:52:47.433Z,48.67
2022-08-17T07:54:51.912Z,46.99
2022-08-17T07:57:19.510Z,46.96
2022-08-17T08:00:02.052Z,47.76
2022-08-17T08:02:42.413Z,47.37
2022-08-17T08:05:48.547Z,46.54
2022-08-17T08:08:55.832Z,46.61
2022-08-17T08:11:33.677Z,46.38
2022-08-17T08:14:31.959Z,45.15
2022-08-17T08:17:05.504Z,44.82
2022-08-17T08:19:35.975Z,45.25
2022-08-17T08:22:13.123Z,44.42
2022-08-17T08:25:04.540Z,43.87
2022-08-17T08:27:49.816Z,44.52
2022-08-17T08:30:28.429Z,43.63
2022-08-17T08:33:32.296Z,42.66
2022-08-17T08:36:59.274Z,42.41
2022-08-17T08:39:34.644Z,44.83
2022-08-17T08:42:20.922Z,43.59
2022-08-17T08:45:17.106Z,45.46
2022-08-17T08:48:12.745Z,44.03
2022-08-17T08:51:12.563Z,42.08
2022-08-17T08:54:02.306Z,42.58
2022-08-17T08:57:22.306Z,42.35
2022-08-17T09:00:07.593Z,41.68
2022-08-17T09:03:00.137Z,40.92
2022-08-17T09:05:53.599Z,40.58
2022-08-17T09:08:37.010Z,40.37
2022-08-17T09:11:17.666Z,39.88
2022-08-17T09:14:21.272Z,39.67
2022-08-17T09:17:19.976Z,40.09
2022-08-17T09:20:28.130Z,40.52
2022-08-17T09:23:19.934Z,41.08
2022-08-17T09:26:10.466Z,39.85
2022-08-17T09:28:41.509Z,39.45
2022-08-17T09:31:18.149Z,38.69
2022-08-17T09:33:48.724Z,37.94
2022-08-17T09:36:39.538Z,37.40
2022-08-17T09:39:17.613Z,38.09
2022-08-17T09:42:00.297Z,38.32
2022-08-17T09:45:09.967Z,39.02
2022-08-17T09:47:56.006Z,38.60
2022-08-17T09:51:05.262Z,38.30
2022-08-17T09:53:34.548Z,38.55
2022-08-17T09:56:28.676Z,38.27
2022-08-17T09:59:41.996Z,38.92
2022-08-17T10:02:22.798Z,38.18
2022-08-17T10:05:08.934Z,37.21
2022-08-17T10:07:54.280Z,36.94
2022-08-17T10:10:43.490Z,36.17
2022-08-17T10:13:36.024Z,36.09
2022-08-17T10:16:26.653Z,35.09
2022-08-17T10:19:16.281Z,36.30
2022-08-17T10:22:14.497Z,35.72
2022-08-17T10:25:23.677Z,36.46
2022-08-17T10:28:00.048Z,35.86
2022-08-17T10:30:34.981Z,34.18
2022-08-17T10:33:14.556Z,34.74
2022-08-17T10:35:57.234Z,33.72
2022-08-17T10:38:42.421Z,34.66
2022-08-17T10:41:53.001Z,35.36
2022-08-17T10:44:41.216Z,35.57
2022-08-17T10:48:21.029Z,33.78
2022-08-17T10:51:36.614Z,34.00
2022-08-17T10:54:25.895Z,33.76
2022-08-17T10:56:56.932Z,33.91
2022-08-17T10:59:37.085Z,34.24
2022-08-17T11:02:20.813Z,34.40
2022-08-17T11:05:09.421Z,33.78
2022-08-17T11:07:48.927Z,33.62
2022-08-17T11:10:40.681Z,33.16
2022-08-17T11:13:30.695Z,34.48
2022-08-17T11:16:09.185Z,34.12
2022-08-17T11:19:13.568Z,33.90
2022-08-17T11:22:06.819Z,34.15
2022-08-17T11:24:49.269Z,33.54
2022-08-17T11:27:33.400Z,33.22
2022-08-17T11:30:51.196Z,32.68
2022-08-17T11:33:29.869Z,31.99
2022-08-17T11:36:19.464Z,30.13
2022-08-17T11:39:06.187Z,30.98
2022-08-17T11:41:58.312Z,30.36
2022-08-17T11:44:45.556Z,30.78
2022-08-17T11:47:35.331Z,31.11
2022-08-17T11:50:55.484Z,30.71
2022-08-17T11:53:43.084Z,30.08
2022-08-17T11:56:48.827Z,30.58
2022-08-17T11:59:50.618Z,29.42
2022-08-17T12:02:21.907Z,29.40
2022-08-17T12:05:17.719Z,28.86
2022-08-17T12:08:04.456Z,28.63
2022-08-17T12:10:36.416Z,28.75
2022-08-17T12:13:13.465Z,29.55
2022-08-17T12:15:48.800Z,28.66
2022-08-17T12:18:21.972Z,30.13
2022-08-17T12:21:18.716Z,28.13
2022-08-17T12:24:16.379Z,29.09
2022-08-17T12:26:58.465Z,30.16
2022-08-17T12:29:35.579Z,28.63
2022-08-17T12:32:13.346Z,26.79
2022-08-17T12:34:44.838Z,27.68
2022-08-17T12:37:26.623Z,28.28
2022-08-17T12:40:08.815Z,27.65
2022-08-17T12:42:39.507Z,28.65
2022-08-17T12:45:21.119Z,27.69
2022-08-17T12:47:49.036Z,26.86
2022-08-17T12:50:29.299Z,26.81
2022-08-17T12:53:02.080Z,26.86
2022-08-17T12:55:37.372Z,26.73
2022-08-17T12:58:15.088Z,26.59
2022-08-17T13:00:50.252Z,25.81
2022-08-17T13:03:25.890Z,26.73
2022-08-17T13:05:57.139Z,28.69
2022-08-17T13:08:38.065Z,27.39
2022-08-17T13:11:09.587Z,27.72
2022-08-17T13:13:43.965Z,27.73
2022-08-17T13:16:17.209Z,28.27
2022-08-17T13:19:06.058Z,29.46
2022-08-17T13:21:36.305Z,29.58
2022-08-17T13:24:11.367Z,29.42
2022-08-17T13:27:07.851Z,30.61
2022-08-17T13:30:15.233Z,29.77
2022-08-17T13:32:49.120Z,29.65
2022-08-17T13:35:43.419Z,29.08
2022-08-17T13:38:39.569Z,29.54
2022-08-17T13:41:07.720Z,28.80
2022-08-17T13:43:45.079Z,28.44
2022-08-17T13:46:26.738Z,28.89
2022-08-17T13:48:58.967Z,30.13
2022-08-17T13:51:33.239Z,30.48
2022-08-17T13:54:04.584Z,31.55
2022-08-17T13:56:47.318Z,29.70
2022-08-17T13:59:53.880Z,30.83
2022-08-17T14:02:17.698Z,29.82
2022-08-17T14:04:50.226Z,29.81
2022-08-17T14:07:20.050Z,30.94
2022-08-17T14:09:55.605Z,31.29
2022-08-17T14:12:27.121Z,31.51
2022-08-17T14:14:56.516Z,31.90
2022-08-17T14:17:25.358Z,30.70
2022-08-17T14:19:55.118Z,31.09
2022-08-17T14:22:33.120Z,31.00
2022-08-17T14:25:03.145Z,31.00
2022-08-17T14:27:41.643Z,31.85
2022-08-17T14:30:26.713Z,32.19
2022-08-17T14:33:02.284Z,32.27
2022-08-17T14:35:30.257Z,31.87
2022-08-17T14:37:58.236Z,32.02
2022-08-17T14:40:26.590Z,32.21
2022-08-17T14:43:12.842Z,32.52
2022-08-17T14:45:41.373Z,31.57
2022-08-17T14:48:08.851Z,31.62
2022-08-17T14:50:40.719Z,30.95
2022-08-17T14:53:15.714Z,30.87
2022-08-17T14:55:45.801Z,31.64
2022-08-17T14:58:14.987Z,31.26
2022-08-17T15:00:43.842Z,31.03
2022-08-17T15:03:11.923Z,32.04
2022-08-17T15:05:39.826Z,31.04
2022-08-17T15:08:07.382Z,31.92
2022-08-17T15:10:35.346Z,32.22
2022-08-17T15:13:08.379Z,31.96
2022-08-17T15:15:40.647Z,31.94
2022-08-17T15:18:10.385Z,31.97
2022-08-17T15:20:38.914Z,31.26
2022-08-17T15:23:18.775Z,31.49
2022-08-17T15:25:48.453Z,31.96
2022-08-17T15:28:16.445Z,32.12
2022-08-17T15:30:45.144Z,31.26
2022-08-17T15:33:18.848Z,31.85
2022-08-17T15:35:53.555Z,31.71
2022-08-17T15:38:22.994Z,31.66
2022-08-17T15:40:51.817Z,31.41
2022-08-17T15:43:28.132Z,31.87
2022-08-17T15:46:14.137Z,31.71
2022-08-17T15:48:49.205Z,32.12
2022-08-17T15:51:35.107Z,32.77
2022-08-17T15:54:18.670Z,33.05
2022-08-17T15:56:50.524Z,33.73
2022-08-17T15:59:18.512Z,33.83
2022-08-17T16:03:15.345Z,34.29
2022-08-17T16:04:35.013Z,34.35
2022-08-17T16:07:07.299Z,34.74
2022-08-17T16:09:35.040Z,34.70
2022-08-17T16:12:10.820Z,34.74
2022-08-17T16:14:38.538Z,35.02
2022-08-17T16:17:38.380Z,35.77
2022-08-17T16:19:55.907Z,35.86
2022-08-17T16:22:38.582Z,35.83
2022-08-17T16:25:10.423Z,36.25
2022-08-17T16:27:38.119Z,36.42
2022-08-17T16:30:07.827Z,36.38
2022-08-17T16:32:36.387Z,36.53
2022-08-17T16:35:06.197Z,36.83
2022-08-17T16:37:35.012Z,36.66
2022-08-17T16:40:09.626Z,37.16
2022-08-17T16:42:38.233Z,37.45
2022-08-17T16:45:09.997Z,37.39
2022-08-17T16:47:38.380Z,37.93
2022-08-17T16:50:11.651Z,38.02
2022-08-17T16:52:44.001Z,38.75
2022-08-17T16:55:16.677Z,38.21
2022-08-17T16:58:31.356Z,38.44
2022-08-17T17:01:29.609Z,38.92
2022-08-17T17:04:03.312Z,38.79
2022-08-17T17:06:50.547Z,38.64
2022-08-17T17:09:34.357Z,38.49
2022-08-17T17:12:12.667Z,38.94
2022-08-17T17:14:45.837Z,39.52
2022-08-17T17:17:30.597Z,39.44
2022-08-17T17:20:09.911Z,40.07
2022-08-17T17:22:48.164Z,40.04
2022-08-17T17:25:39.689Z,40.12
2022-08-17T17:28:42.827Z,40.63
2022-08-17T17:31:24.226Z,40.03
2022-08-17T17:34:11.495Z,40.82
2022-08-17T17:36:54.274Z,40.75
2022-08-17T17:39:45.994Z,41.92
2022-08-17T17:42:25.085Z,42.91
2022-08-17T17:45:18.518Z,42.03
2022-08-17T17:48:04.307Z,45.35
2022-08-17T17:50:49.586Z,45.81
2022-08-17T17:53:43.347Z,45.78
2022-08-17T17:56:45.410Z,45.57
2022-08-17T17:59:46.544Z,46.08
2022-08-17T18:02:52.159Z,46.99
2022-08-17T18:05:46.994Z,47.79
2022-08-17T18:08:53.381Z,47.77
2022-08-17T18:11:25.065Z,47.18
2022-08-17T18:14:25.297Z,47.13
2022-08-17T18:17:04.897Z,47.13
2022-08-17T18:19:33.410Z,47.51
2022-08-17T18:22:14.013Z,46.13
2022-08-17T18:24:48.330Z,46.57
2022-08-17T18:28:00.414Z,46.38
2022-08-17T18:31:20.515Z,45.75
2022-08-17T18:34:36.127Z,45.45
2022-08-17T18:37:46.291Z,44.88
2022-08-17T18:40:45.862Z,44.45
2022-08-17T18:43:53.475Z,45.08
2022-08-17T18:46:37.824Z,45.18
2022-08-17T18:49:28.358Z,45.34
2022-08-17T18:52:31.044Z,44.78
2022-08-17T18:55:05.202Z,44.58
2022-08-17T18:57:52.077Z,45.43
2022-08-17T19:00:46.060Z,45.52
2022-08-17T19:03:15.959Z,44.95
2022-08-17T19:06:12.453Z,44.83
2022-08-17T19:08:41.016Z,45.51
2022-08-17T19:11:36.502Z,45.37
2022-08-17T19:14:22.376Z,45.12
2022-08-17T19:20:03.044Z,45.11
2022-08-17T19:22:58.565Z,45.63
2022-08-17T19:25:46.800Z,45.54
2022-08-17T19:28:32.812Z,45.51
2022-08-17T19:31:19.390Z,45.95
2022-08-17T19:33:58.053Z,45.60
2022-08-17T19:36:42.069Z,45.68
2022-08-17T19:39:38.010Z,45.55
2022-08-17T19:42:58.133Z,45.21
2022-08-17T19:46:10.729Z,45.01
2022-08-17T19:49:33.431Z,45.26
2022-08-17T19:52:50.354Z,45.55
2022-08-17T19:55:50.425Z,45.75
2022-08-17T19:58:37.773Z,46.28
2022-08-17T20:01:13.794Z,46.51
2022-08-17T20:13:47.403Z,47.44
2022-08-17T20:16:40.910Z,47.42
2022-08-17T20:23:50.595Z,47.30
2022-08-17T20:26:36.439Z,47.87
2022-08-17T20:29:17.563Z,48.11
2022-08-17T20:32:35.322Z,47.63
2022-08-17T20:35:45.862Z,48.08
2022-08-17T20:38:45.765Z,48.03
2022-08-17T20:41:31.017Z,48.71
2022-08-17T20:44:37.914Z,48.67
2022-08-17T20:48:07.461Z,49.01
2022-08-17T20:50:45.082Z,48.76
2022-08-17T20:53:48.189Z,48.90
2022-08-17T20:56:44.504Z,48.89
2022-08-17T20:59:28.373Z,49.43
2022-08-17T21:02:30.099Z,49.79
2022-08-17T21:05:06.878Z,49.76
2022-08-17T21:07:43.087Z,51.05
2022-08-17T21:10:16.548Z,50.92
2022-08-17T21:12:56.997Z,51.61
2022-08-17T21:15:42.585Z,51.98
2022-08-17T21:22:33.865Z,52.09
2022-08-17T21:28:36.457Z,51.73
2022-08-17T21:32:01.146Z,48.71
2022-08-17T21:35:34.159Z,52.52
2022-08-17T21:38:16.320Z,53.54
2022-08-17T21:44:43.686Z,51.65
2022-08-17T21:47:46.470Z,52.43
2022-08-17T21:51:26.996Z,52.80
2022-08-17T21:54:41.391Z,50.68
2022-08-17T21:58:12.165Z,53.00
2022-08-17T22:01:33.495Z,53.06
2022-08-17T22:08:06.045Z,52.76
2022-08-17T22:11:37.051Z,52.86
2022-08-17T22:15:21.143Z,53.22
2022-08-17T22:18:33.911Z,52.42
2022-08-17T22:21:28.884Z,52.56
2022-08-17T22:24:28.869Z,53.11
2022-08-17T22:27:12.807Z,52.35
2022-08-17T22:29:57.406Z,53.30
2022-08-17T22:32:57.352Z,53.69
2022-08-17T22:36:09.990Z,53.53
2022-08-17T22:39:31.356Z,52.66
2022-08-17T22:42:19.734Z,53.32
2022-08-17T22:44:50.379Z,52.28
2022-08-17T22:47:43.268Z,52.99
2022-08-17T22:50:37.178Z,53.37
2022-08-17T22:53:39.120Z,53.49
2022-08-17T22:56:35.439Z,53.55
2022-08-17T22:59:32.485Z,53.69
2022-08-17T23:02:22.404Z,53.35
2022-08-17T23:05:16.027Z,53.17
2022-08-17T23:11:16.147Z,52.90
2022-08-17T23:13:54.807Z,53.09
2022-08-17T23:16:25.298Z,52.99
2022-08-17T23:18:56.352Z,52.50
2022-08-17T23:21:30.670Z,53.00
2022-08-17T23:24:12.179Z,53.27
2022-08-17T23:26:59.095Z,53.54
2022-08-17T23:33:21.460Z,52.84
2022-08-17T23:35:53.520Z,52.46
2022-08-17T23:39:02.766Z,52.94
2022-08-17T23:42:05.389Z,53.43
2022-08-17T23:44:35.606Z,53.53
2022-08-17T23:47:05.787Z,53.72
2022-08-17T23:49:48.567Z,53.39
2022-08-17T23:52:46.010Z,52.77
2022-08-17T23:55:20.019Z,52.75
2022-08-17T23:57:55.253Z,52.83
